Time;durP1;ratioP1;P1;durP2;ratioP2;P2;SDS_P1;SDS_P2;PMS_P1;PMS_P2;Temp;Humidity;BMP_temperature;BMP_pressure;BME280_temperature;BME280_humidity;BME280_pressure;Samples;Min_cycle;Max_cycle;Signal;HPM_P1;HPM_P2
2023/06/21 02:43:04;;;;;;;2.60;2.50;;;;;;;;;;5235479;22;20061;-58
2023/06/21 02:45:24;;;;;;;2.30;2.20;;;;;;;;;;5235438;22;20329;-58
2023/06/21 02:47:44;;;;;;;2.17;2.00;;;;;;;;;;5226637;22;20022;-58
2023/06/21 02:50:05;;;;;;;2.00;1.83;;;;;;;;;;5226647;22;20034;-58
2023/06/21 02:52:25;;;;;;;2.30;2.10;;;;;;;;;;5226698;22;20022;-58
2023/06/21 02:54:45;;;;;;;3.00;2.78;;;;;;;;;;5226802;22;20026;-58
2023/06/21 02:57:06;;;;;;;2.67;2.45;;;;;;;;;;5227734;22;20030;-58
2023/06/21 02:59:29;;;;;;;3.38;3.17;;;;;;;;;;5227758;22;20026;-58
2023/06/21 03:01:50;;;;;;;3.38;3.22;;;;;;;;;;5227871;22;20074;-58
2023/06/21 03:04:11;;;;;;;3.00;2.80;;;;;;;;;;5227840;22;20021;-58
2023/06/21 03:06:33;;;;;;;17.73;3.00;;;;;;;;;;5227772;22;20068;-58
2023/06/21 03:08:54;;;;;;;2.40;2.05;;;;;;;;;;5227870;22;20038;-58
2023/06/21 03:11:14;;;;;;;2.47;2.33;;;;;;;;;;5227786;22;20026;-58
2023/06/21 03:13:38;;;;;;;2.60;2.40;;;;;;;;;;5227588;22;20088;-58
2023/06/21 03:15:59;;;;;;;2.35;2.08;;;;;;;;;;5227720;22;20361;-58
2023/06/21 03:18:19;;;;;;;2.97;2.78;;;;;;;;;;5227762;22;20022;-58
2023/06/21 03:20:40;;;;;;;3.15;2.95;;;;;;;;;;5227626;22;20084;-58
2023/06/21 03:23:01;;;;;;;3.45;3.00;;;;;;;;;;5227718;22;20026;-58
2023/06/21 03:25:21;;;;;;;3.47;3.15;;;;;;;;;;5227812;22;20094;-58
2023/06/21 03:27:41;;;;;;;2.33;2.13;;;;;;;;;;5227719;22;20022;-58
2023/06/21 03:30:01;;;;;;;3.60;3.50;;;;;;;;;;5227635;22;20029;-58
2023/06/21 03:32:22;;;;;;;3.38;3.08;;;;;;;;;;5227736;22;20065;-58
2023/06/21 03:34:42;;;;;;;2.55;2.45;;;;;;;;;;5227545;22;20049;-58
2023/06/21 03:37:03;;;;;;;3.33;3.13;;;;;;;;;;5227585;22;20022;-59
2023/06/21 03:39:23;;;;;;;2.42;2.42;;;;;;;;;;5227693;22;20075;-58
2023/06/21 03:41:43;;;;;;;2.45;2.28;;;;;;;;;;5204720;22;20047;-58
2023/06/21 03:44:04;;;;;;;2.63;2.45;;;;;;;;;;5227563;22;20042;-58
2023/06/21 03:46:24;;;;;;;2.78;2.67;;;;;;;;;;5227585;22;20041;-58
2023/06/21 03:48:45;;;;;;;2.80;2.70;;;;;;;;;;5227688;22;20341;-58
2023/06/21 03:51:05;;;;;;;2.83;2.72;;;;;;;;;;5227539;22;20025;-58
2023/06/21 03:53:27;;;;;;;2.75;2.55;;;;;;;;;;5227409;22;20023;-58
2023/06/21 03:55:47;;;;;;;2.50;2.35;;;;;;;;;;5227627;22;20118;-58
2023/06/21 03:58:07;;;;;;;3.10;3.00;;;;;;;;;;5227582;22;20192;-58
2023/06/21 04:00:27;;;;;;;2.67;2.58;;;;;;;;;;5227589;22;20236;-58
2023/06/21 04:02:48;;;;;;;2.70;2.50;;;;;;;;;;5227738;22;20058;-58
2023/06/21 04:05:10;;;;;;;3.35;3.03;;;;;;;;;;5227491;22;20038;-58
2023/06/21 04:07:30;;;;;;;2.42;2.28;;;;;;;;;;5224967;22;20117;-58
2023/06/21 04:09:51;;;;;;;2.53;2.42;;;;;;;;;;5227646;22;20045;-58
2023/06/21 04:12:12;;;;;;;3.75;3.10;;;;;;;;;;5227498;22;20026;-58
2023/06/21 04:14:32;;;;;;;2.58;2.38;;;;;;;;;;5227353;22;20022;-57
2023/06/21 04:16:53;;;;;;;2.70;2.60;;;;;;;;;;5227503;22;20042;-58
2023/06/21 04:19:13;;;;;;;3.45;3.25;;;;;;;;;;5227663;22;20218;-58
2023/06/21 04:21:33;;;;;;;3.28;2.97;;;;;;;;;;5227471;22;20022;-58
2023/06/21 04:23:54;;;;;;;3.40;3.10;;;;;;;;;;5204524;22;20061;-58
2023/06/21 04:26:14;;;;;;;3.10;2.90;;;;;;;;;;5227560;22;20026;-58
2023/06/21 04:28:35;;;;;;;2.58;2.47;;;;;;;;;;5227421;22;20037;-58
2023/06/21 04:30:55;;;;;;;8.55;4.18;;;;;;;;;;5227424;22;20057;-58
2023/06/21 04:33:15;;;;;;;3.53;3.20;;;;;;;;;;5227500;22;20053;-58
2023/06/21 04:35:36;;;;;;;3.60;2.78;;;;;;;;;;5227413;22;20065;-58
2023/06/21 04:37:56;;;;;;;3.05;2.95;;;;;;;;;;5235945;22;20206;-58
2023/06/21 04:40:17;;;;;;;3.88;2.38;;;;;;;;;;5227407;22;20033;-58
2023/06/21 04:42:55;;;;;;;2.92;2.88;;;;;;;;;;5227502;22;20021;-58
2023/06/21 04:45:16;;;;;;;2.92;2.72;;;;;;;;;;5227439;22;20022;-58
2023/06/21 04:47:37;;;;;;;3.72;3.15;;;;;;;;;;5227357;22;20026;-58
2023/06/21 04:49:57;;;;;;;4.00;3.65;;;;;;;;;;5227471;22;20329;-58
2023/06/21 04:52:38;;;;;;;3.97;3.25;;;;;;;;;;5227543;22;20328;-58
2023/06/21 04:55:01;;;;;;;3.85;3.28;;;;;;;;;;5227217;22;20021;-58
2023/06/21 04:57:21;;;;;;;4.85;3.22;;;;;;;;;;5227175;22;20091;-58
2023/06/21 04:59:42;;;;;;;3.30;3.15;;;;;;;;;;5227338;22;20045;-58
2023/06/21 05:02:03;;;;;;;3.47;2.97;;;;;;;;;;5227340;22;20080;-58
2023/06/21 05:04:23;;;;;;;6.72;3.28;;;;;;;;;;5227222;22;20210;-58
2023/06/21 05:06:43;;;;;;;4.32;3.38;;;;;;;;;;5227325;22;20229;-58
2023/06/21 05:09:04;;;;;;;3.20;3.10;;;;;;;;;;5227506;22;20022;-58
2023/06/21 05:11:24;;;;;;;4.03;3.92;;;;;;;;;;5227218;22;20070;-58
2023/06/21 05:13:45;;;;;;;3.45;3.25;;;;;;;;;;5227131;22;20257;-57
2023/06/21 05:16:05;;;;;;;4.10;3.13;;;;;;;;;;5227381;22;20026;-58
2023/06/21 05:18:25;;;;;;;3.60;3.50;;;;;;;;;;5226528;22;20056;-58
2023/06/21 05:20:45;;;;;;;4.47;4.28;;;;;;;;;;5227241;22;20068;-58
2023/06/21 05:23:06;;;;;;;3.42;3.13;;;;;;;;;;5227370;22;20061;-58
2023/06/21 05:25:26;;;;;;;3.83;3.55;;;;;;;;;;5227191;22;20057;-57
2023/06/21 05:27:46;;;;;;;4.93;3.70;;;;;;;;;;5227053;22;20026;-57
2023/06/21 05:30:07;;;;;;;3.65;3.50;;;;;;;;;;5227264;22;20049;-57
2023/06/21 05:32:28;;;;;;;3.67;3.50;;;;;;;;;;5227223;22;20026;-57
2023/06/21 05:34:48;;;;;;;4.38;4.20;;;;;;;;;;5226994;22;20060;-57
2023/06/21 05:37:08;;;;;;;3.38;3.28;;;;;;;;;;5227129;22;20060;-57
2023/06/21 05:39:28;;;;;;;4.07;3.78;;;;;;;;;;5227237;22;20352;-57
2023/06/21 05:41:48;;;;;;;3.80;3.53;;;;;;;;;;5227105;22;20022;-57
2023/06/21 05:44:09;;;;;;;2.33;2.22;;;;;;;;;;5227150;22;20022;-57
2023/06/21 05:46:29;;;;;;;2.85;2.63;;;;;;;;;;5227219;22;20219;-57
2023/06/21 05:48:50;;;;;;;3.47;3.17;;;;;;;;;;5227111;22;20057;-57
2023/06/21 05:51:10;;;;;;;3.25;2.92;;;;;;;;;;5226326;22;20414;-57
2023/06/21 05:53:30;;;;;;;2.38;2.17;;;;;;;;;;5227069;22;20080;-57
2023/06/21 05:55:50;;;;;;;2.65;2.45;;;;;;;;;;5227099;22;20049;-57
2023/06/21 05:58:10;;;;;;;3.72;2.10;;;;;;;;;;5227005;22;20218;-57
2023/06/21 06:00:31;;;;;;;2.78;2.67;;;;;;;;;;5227170;22;20361;-57
2023/06/21 06:02:51;;;;;;;2.53;2.13;;;;;;;;;;5227064;22;20026;-57
2023/06/21 06:05:12;;;;;;;2.10;2.00;;;;;;;;;;5226903;22;20023;-57
2023/06/21 06:07:32;;;;;;;3.65;2.08;;;;;;;;;;5226929;22;20022;-57
2023/06/21 06:09:53;;;;;;;2.72;2.63;;;;;;;;;;5227063;22;20026;-57
2023/06/21 06:12:13;;;;;;;2.65;2.30;;;;;;;;;;5226881;22;20057;-57
2023/06/21 06:14:33;;;;;;;2.35;2.25;;;;;;;;;;5226859;22;20064;-57
2023/06/21 06:16:53;;;;;;;3.47;2.22;;;;;;;;;;5227068;22;20049;-57
2023/06/21 06:19:13;;;;;;;2.85;1.98;;;;;;;;;;5226958;22;20113;-57
2023/06/21 06:21:33;;;;;;;2.20;2.03;;;;;;;;;;5226932;22;20038;-57
2023/06/21 06:23:53;;;;;;;2.08;1.98;;;;;;;;;;5226988;22;20104;-57
2023/06/21 06:26:14;;;;;;;2.38;2.20;;;;;;;;;;5226922;22;20053;-57
2023/06/21 06:28:34;;;;;;;2.13;1.92;;;;;;;;;;5226621;22;20057;-57
2023/06/21 06:30:54;;;;;;;1.80;1.80;;;;;;;;;;5226935;22;20026;-57
2023/06/21 06:33:14;;;;;;;2.90;1.77;;;;;;;;;;5226890;22;20022;-57
2023/06/21 06:35:34;;;;;;;1.80;1.70;;;;;;;;;;5226685;22;20054;-57
2023/06/21 06:37:55;;;;;;;2.67;1.85;;;;;;;;;;5226815;22;20368;-58
2023/06/21 06:40:15;;;;;;;3.95;2.30;;;;;;;;;;5226775;22;20026;-58
2023/06/21 06:42:35;;;;;;;2.70;1.92;;;;;;;;;;5226740;22;20021;-57
2023/06/21 06:44:59;;;;;;;1.60;1.50;;;;;;;;;;5226808;22;20022;-57
2023/06/21 06:47:19;;;;;;;1.30;1.30;;;;;;;;;;5226873;22;20027;-57
2023/06/21 06:49:40;;;;;;;2.35;1.80;;;;;;;;;;5226839;22;20022;-57
2023/06/21 06:52:00;;;;;;;1.50;1.50;;;;;;;;;;5201321;22;20026;-57
2023/06/21 06:54:21;;;;;;;3.75;1.50;;;;;;;;;;5226724;22;20030;-57
2023/06/21 06:56:42;;;;;;;1.63;1.63;;;;;;;;;;5226728;22;20372;-57
2023/06/21 06:59:03;;;;;;;1.50;1.50;;;;;;;;;;5226572;22;20030;-57
2023/06/21 07:01:25;;;;;;;3.25;1.55;;;;;;;;;;5226717;22;20022;-57
2023/06/21 07:03:45;;;;;;;;;;;;;;;;;;5227101;22;20022;-57
2023/06/21 07:06:06;;;;;;;1.50;1.50;;;;;;;;;;5226507;22;19918;-57
2023/06/21 07:08:26;;;;;;;1.13;1.13;;;;;;;;;;5226580;22;20067;-57
2023/06/21 07:10:46;;;;;;;3.92;1.35;;;;;;;;;;5203757;22;20026;-57
2023/06/21 07:13:07;;;;;;;1.25;1.23;;;;;;;;;;5226517;22;20061;-57
2023/06/21 07:15:27;;;;;;;1.65;1.23;;;;;;;;;;5226534;22;20265;-57
2023/06/21 07:17:47;;;;;;;1.05;1.05;;;;;;;;;;5226577;22;20203;-57
2023/06/21 07:20:08;;;;;;;1.30;1.30;;;;;;;;;;5226546;22;20061;-57
2023/06/21 07:22:29;;;;;;;1.27;1.15;;;;;;;;;;5226437;22;20022;-57
2023/06/21 07:24:49;;;;;;;1.70;1.10;;;;;;;;;;5226514;22;20207;-57
2023/06/21 07:27:09;;;;;;;2.00;1.80;;;;;;;;;;5226477;22;20338;-57
2023/06/21 07:29:29;;;;;;;12.38;1.45;;;;;;;;;;5226288;22;20022;-57
2023/06/21 07:31:50;;;;;;;1.10;1.00;;;;;;;;;;5226464;22;20025;-57
2023/06/21 07:34:10;;;;;;;1.75;1.00;;;;;;;;;;5226246;22;20116;-58
2023/06/21 07:36:31;;;;;;;1.17;1.17;;;;;;;;;;5226273;22;20027;-57
2023/06/21 07:38:51;;;;;;;1.35;1.35;;;;;;;;;;5226296;22;20087;-57
2023/06/21 07:41:13;;;;;;;1.02;0.90;;;;;;;;;;5226856;22;20026;-57
2023/06/21 07:43:33;;;;;;;1.23;1.23;;;;;;;;;;5227612;22;20031;-57
2023/06/21 07:45:54;;;;;;;3.10;1.20;;;;;;;;;;5227644;22;20086;-57
2023/06/21 07:48:34;;;;;;;1.20;1.20;;;;;;;;;;5227572;22;20061;-57
2023/06/21 07:50:54;;;;;;;1.23;1.10;;;;;;;;;;5236293;22;20218;-57
2023/06/21 07:53:15;;;;;;;1.33;1.23;;;;;;;;;;5227562;22;20022;-57
2023/06/21 07:55:35;;;;;;;2.20;2.00;;;;;;;;;;5227583;22;20026;-57
2023/06/21 07:57:55;;;;;;;1.10;1.10;;;;;;;;;;5227638;22;20026;-57
2023/06/21 08:00:16;;;;;;;1.30;1.30;;;;;;;;;;5227533;22;20060;-57
2023/06/21 08:02:36;;;;;;;1.02;1.02;;;;;;;;;;5227606;22;20065;-57
2023/06/21 08:04:56;;;;;;;1.02;1.02;;;;;;;;;;5227577;22;20341;-57
2023/06/21 08:07:17;;;;;;;1.00;1.00;;;;;;;;;;5227564;22;20057;-57
2023/06/21 08:09:37;;;;;;;2.78;1.23;;;;;;;;;;5227439;22;20026;-57
2023/06/21 08:11:58;;;;;;;2.17;1.00;;;;;;;;;;5227603;22;20022;-57
2023/06/21 08:14:18;;;;;;;1.70;1.00;;;;;;;;;;5204491;22;20054;-57
2023/06/21 08:16:39;;;;;;;1.05;1.02;;;;;;;;;;5227410;22;20249;-57
2023/06/21 08:19:00;;;;;;;1.30;1.10;;;;;;;;;;5227476;22;20075;-57
2023/06/21 08:21:20;;;;;;;1.95;1.10;;;;;;;;;;5227571;22;20334;-57
2023/06/21 08:23:42;;;;;;;1.05;1.00;;;;;;;;;;5227432;22;20018;-57
2023/06/21 08:26:02;;;;;;;1.83;1.10;;;;;;;;;;5227379;22;20026;-57
2023/06/21 08:28:23;;;;;;;0.90;0.90;;;;;;;;;;5227541;22;20052;-57
2023/06/21 08:30:43;;;;;;;0.90;0.90;;;;;;;;;;5227466;22;20026;-57
2023/06/21 08:33:03;;;;;;;1.10;1.00;;;;;;;;;;5227484;22;20082;-57
2023/06/21 08:35:24;;;;;;;1.13;0.90;;;;;;;;;;5227452;22;20026;-57
2023/06/21 08:37:55;;;;;;;1.90;0.88;;;;;;;;;;5227481;22;20344;-57
2023/06/21 08:40:16;;;;;;;0.80;0.80;;;;;;;;;;5227241;22;20026;-57
2023/06/21 08:42:37;;;;;;;1.77;0.80;;;;;;;;;;5227430;22;20057;-57
2023/06/21 08:44:57;;;;;;;0.70;0.70;;;;;;;;;;5227485;22;20060;-57
2023/06/21 08:47:18;;;;;;;1.10;0.90;;;;;;;;;;5227446;22;20022;-57
2023/06/21 08:49:41;;;;;;;1.10;1.10;;;;;;;;;;5227320;22;20404;-57
2023/06/21 08:52:03;;;;;;;0.80;0.80;;;;;;;;;;5227348;22;20061;-57
2023/06/21 08:54:24;;;;;;;1.20;1.20;;;;;;;;;;5227276;22;20042;-57
2023/06/21 08:56:47;;;;;;;1.40;0.90;;;;;;;;;;5227215;22;20060;-58
2023/06/21 08:59:09;;;;;;;1.50;0.80;;;;;;;;;;5227264;22;20214;-58
2023/06/21 09:01:29;;;;;;;;;;;;;;;;;;5227878;22;20022;-57
2023/06/21 09:03:59;;;;;;;1.75;0.80;;;;;;;;;;5227276;22;20264;-57
2023/06/21 09:06:22;;;;;;;0.80;0.80;;;;;;;;;;5227234;22;20022;-57
2023/06/21 09:08:43;;;;;;;0.85;0.85;;;;;;;;;;5227353;22;20361;-58
2023/06/21 09:11:04;;;;;;;0.80;0.80;;;;;;;;;;5227385;22;20038;-57
2023/06/21 09:13:25;;;;;;;0.80;0.80;;;;;;;;;;5227161;22;20210;-57
2023/06/21 09:15:47;;;;;;;1.40;0.80;;;;;;;;;;5204299;22;20045;-57
2023/06/21 09:18:07;;;;;;;0.88;0.88;;;;;;;;;;5227448;22;20022;-57
2023/06/21 09:20:28;;;;;;;1.05;0.80;;;;;;;;;;5227297;22;20133;-57
2023/06/21 09:22:49;;;;;;;0.80;0.80;;;;;;;;;;5201983;22;20073;-57
2023/06/21 09:25:10;;;;;;;1.23;0.70;;;;;;;;;;5227269;22;20022;-57
2023/06/21 09:27:33;;;;;;;1.45;0.70;;;;;;;;;;5227254;22;20025;-57
2023/06/21 09:29:53;;;;;;;2.67;0.80;;;;;;;;;;5227146;22;20127;-57
2023/06/21 09:32:14;;;;;;;1.67;0.70;;;;;;;;;;5227335;22;20022;-57
2023/06/21 09:34:34;;;;;;;0.70;0.70;;;;;;;;;;5227114;22;20209;-57
2023/06/21 09:36:55;;;;;;;1.38;0.70;;;;;;;;;;5227134;22;20026;-57
2023/06/21 09:39:15;;;;;;;1.10;0.70;;;;;;;;;;5227176;22;20022;-58
2023/06/21 09:41:36;;;;;;;1.00;1.00;;;;;;;;;;5227299;22;20026;-58
2023/06/21 09:43:58;;;;;;;2.08;0.80;;;;;;;;;;5227039;22;20026;-57
2023/06/21 09:46:18;;;;;;;1.80;0.70;;;;;;;;;;5227192;22;20088;-57
2023/06/21 09:48:39;;;;;;;0.70;0.70;;;;;;;;;;5227343;22;20054;-57
2023/06/21 09:51:02;;;;;;;1.33;1.23;;;;;;;;;;5227265;22;20094;-57
2023/06/21 09:53:24;;;;;;;0.60;0.60;;;;;;;;;;5227042;22;20221;-58
2023/06/21 09:55:44;;;;;;;0.60;0.60;;;;;;;;;;5227242;22;20034;-57
2023/06/21 09:58:05;;;;;;;0.70;0.70;;;;;;;;;;5227184;22;20022;-58
2023/06/21 10:00:25;;;;;;;1.40;0.70;;;;;;;;;;5204141;22;20364;-58
2023/06/21 10:02:49;;;;;;;2.53;0.70;;;;;;;;;;5227075;22;20053;-58
2023/06/21 10:05:16;;;;;;;1.40;1.00;;;;;;;;;;5226885;22;20021;-57
2023/06/21 10:07:43;;;;;;;0.88;0.70;;;;;;;;;;5227080;22;20050;-57
2023/06/21 10:10:06;;;;;;;1.60;0.60;;;;;;;;;;5227016;22;20052;-57
2023/06/21 10:12:27;;;;;;;0.60;0.60;;;;;;;;;;5227009;22;20040;-57
2023/06/21 10:14:47;;;;;;;0.60;0.60;;;;;;;;;;5227000;22;20021;-57
2023/06/21 10:17:08;;;;;;;1.10;0.73;;;;;;;;;;5226864;22;20023;-57
2023/06/21 10:19:31;;;;;;;1.50;0.70;;;;;;;;;;5226992;22;20325;-57
2023/06/21 10:21:59;;;;;;;0.52;0.52;;;;;;;;;;5227046;22;20061;-57
2023/06/21 10:24:21;;;;;;;2.05;0.60;;;;;;;;;;5226912;22;20022;-57
2023/06/21 10:26:44;;;;;;;0.63;0.60;;;;;;;;;;5226788;22;20026;-57
2023/06/21 10:29:05;;;;;;;0.50;0.50;;;;;;;;;;5226917;22;20037;-57
2023/06/21 10:31:28;;;;;;;0.60;0.60;;;;;;;;;;5227066;22;20079;-57
2023/06/21 10:33:49;;;;;;;1.52;0.60;;;;;;;;;;5226847;22;20022;-57
2023/06/21 10:36:14;;;;;;;0.60;0.60;;;;;;;;;;5226750;22;20065;-58
2023/06/21 10:38:44;;;;;;;0.50;0.50;;;;;;;;;;5226946;22;20049;-58
2023/06/21 10:41:05;;;;;;;0.60;0.60;;;;;;;;;;5226864;22;20086;-58
2023/06/21 10:43:28;;;;;;;0.60;0.60;;;;;;;;;;5226764;22;20251;-58
2023/06/21 10:45:49;;;;;;;1.27;0.60;;;;;;;;;;5226730;22;20022;-57
2023/06/21 10:48:11;;;;;;;3.80;0.50;;;;;;;;;;5226879;22;20348;-57
2023/06/21 10:50:35;;;;;;;0.50;0.50;;;;;;;;;;5201345;22;20054;-57
2023/06/21 10:52:58;;;;;;;0.60;0.60;;;;;;;;;;5226626;22;20034;-57
2023/06/21 10:55:20;;;;;;;0.60;0.60;;;;;;;;;;5226600;22;20242;-57
2023/06/21 10:57:41;;;;;;;0.57;0.57;;;;;;;;;;5226796;22;20081;-57
2023/06/21 11:00:03;;;;;;;0.70;0.65;;;;;;;;;;5226689;22;20026;-57
2023/06/21 11:02:24;;;;;;;0.50;0.50;;;;;;;;;;5226666;22;20034;-57
2023/06/21 11:05:03;;;;;;;0.68;0.50;;;;;;;;;;5226689;22;20030;-57
2023/06/21 11:07:24;;;;;;;0.73;0.60;;;;;;;;;;5226717;22;20057;-57
2023/06/21 11:09:44;;;;;;;0.88;0.80;;;;;;;;;;5226620;22;20034;-57
2023/06/21 11:12:08;;;;;;;1.23;0.50;;;;;;;;;;5226960;22;20065;-57
2023/06/21 11:14:34;;;;;;;0.50;0.50;;;;;;;;;;5226524;22;20069;-57
2023/06/21 11:17:06;;;;;;;0.50;0.50;;;;;;;;;;5227430;22;20057;-57
2023/06/21 11:19:27;;;;;;;0.60;0.60;;;;;;;;;;5227733;22;20372;-57
2023/06/21 11:21:49;;;;;;;1.60;0.68;;;;;;;;;;5227709;22;20042;-58
2023/06/21 11:24:09;;;;;;;;;;;;;;;;;;5205355;22;20062;-58
2023/06/21 11:26:50;;;;;;;0.60;0.60;;;;;;;;;;5227773;22;19953;-58
2023/06/21 11:29:13;;;;;;;0.75;0.60;;;;;;;;;;5227681;22;20045;-58
2023/06/21 11:31:40;;;;;;;0.70;0.70;;;;;;;;;;5227662;22;20367;-57
2023/06/21 11:34:03;;;;;;;0.60;0.60;;;;;;;;;;5227595;22;20223;-57
2023/06/21 11:36:27;;;;;;;1.60;0.60;;;;;;;;;;5227768;22;20025;-57
2023/06/21 11:38:49;;;;;;;1.30;0.60;;;;;;;;;;5227695;22;20245;-57
2023/06/21 11:41:29;;;;;;;0.60;0.60;;;;;;;;;;5227627;22;20332;-57
2023/06/21 11:43:58;;;;;;;1.23;0.60;;;;;;;;;;5227660;22;20050;-57
2023/06/21 11:46:24;;;;;;;1.85;0.60;;;;;;;;;;5227705;22;20025;-58
2023/06/21 11:48:45;;;;;;;0.60;0.60;;;;;;;;;;5227642;22;20258;-57
2023/06/21 11:51:09;;;;;;;0.60;0.60;;;;;;;;;;5224370;22;20026;-57
2023/06/21 11:53:39;;;;;;;1.50;0.60;;;;;;;;;;5227677;22;20341;-58
2023/06/21 11:56:03;;;;;;;1.92;0.60;;;;;;;;;;5227668;22;20026;-58
2023/06/21 11:58:24;;;;;;;0.93;0.60;;;;;;;;;;5227616;22;20072;-58
2023/06/21 12:00:45;;;;;;;0.60;0.60;;;;;;;;;;5227527;22;20022;-57
2023/06/21 12:03:06;;;;;;;0.60;0.50;;;;;;;;;;5227638;22;20062;-57
2023/06/21 12:05:26;;;;;;;0.65;0.60;;;;;;;;;;5227676;22;20067;-58
2023/06/21 12:07:47;;;;;;;0.90;0.60;;;;;;;;;;5227411;22;20025;-57
2023/06/21 12:10:08;;;;;;;1.17;0.60;;;;;;;;;;5227492;22;20022;-58
2023/06/21 12:12:28;;;;;;;0.77;0.60;;;;;;;;;;5227548;22;20333;-57
2023/06/21 12:14:48;;;;;;;0.50;0.50;;;;;;;;;;5227380;22;20426;-58
2023/06/21 12:17:08;;;;;;;2.70;0.60;;;;;;;;;;5227453;22;20215;-57
2023/06/21 12:19:31;;;;;;;1.45;0.60;;;;;;;;;;5227586;22;20222;-57
2023/06/21 12:21:51;;;;;;;0.60;0.60;;;;;;;;;;5227472;22;20240;-57
2023/06/21 12:24:11;;;;;;;1.77;0.70;;;;;;;;;;5227365;22;20021;-58
2023/06/21 12:26:31;;;;;;;1.05;0.70;;;;;;;;;;5227251;22;20026;-58
2023/06/21 12:28:52;;;;;;;0.60;0.60;;;;;;;;;;5227417;22;20058;-57
2023/06/21 12:31:16;;;;;;;1.30;0.60;;;;;;;;;;5227264;22;20110;-58
2023/06/21 12:33:38;;;;;;;3.08;0.73;;;;;;;;;;5227475;22;20075;-58
2023/06/21 12:36:20;;;;;;;1.10;0.73;;;;;;;;;;5236067;22;20050;-58
2023/06/21 12:38:43;;;;;;;0.60;0.60;;;;;;;;;;5227530;22;20388;-58
2023/06/21 12:41:03;;;;;;;0.70;0.70;;;;;;;;;;5227314;22;20025;-58
2023/06/21 12:43:37;;;;;;;0.93;0.80;;;;;;;;;;5227345;22;20022;-58
2023/06/21 12:45:57;;;;;;;1.95;0.80;;;;;;;;;;5227402;22;20345;-58
2023/06/21 12:48:20;;;;;;;1.25;0.60;;;;;;;;;;5227425;22;20060;-58
2023/06/21 12:50:42;;;;;;;0.93;0.60;;;;;;;;;;5227300;22;20057;-58
2023/06/21 12:53:03;;;;;;;;;;;;;;;;;;5227864;22;20033;-58
2023/06/21 12:55:23;;;;;;;4.47;0.80;;;;;;;;;;5227342;22;19917;-58
2023/06/21 12:57:44;;;;;;;0.82;0.82;;;;;;;;;;5227313;22;20052;-58
2023/06/21 13:00:05;;;;;;;0.70;0.70;;;;;;;;;;5227354;22;20253;-58
2023/06/21 13:02:28;;;;;;;0.70;0.70;;;;;;;;;;5227415;22;20023;-58
2023/06/21 13:04:49;;;;;;;1.50;0.90;;;;;;;;;;5227304;22;20504;-58
2023/06/21 13:07:09;;;;;;;1.73;0.70;;;;;;;;;;5227224;22;20328;-58
2023/06/21 13:09:34;;;;;;;2.80;0.63;;;;;;;;;;5227300;22;20023;-58
2023/06/21 13:11:54;;;;;;;0.65;0.60;;;;;;;;;;5227423;22;20054;-59
2023/06/21 13:14:15;;;;;;;1.13;0.80;;;;;;;;;;5227195;22;20021;-58
2023/06/21 13:16:35;;;;;;;6.25;5.75;;;;;;;;;;5227295;22;20026;-58
2023/06/21 13:18:55;;;;;;;1.35;1.20;;;;;;;;;;5227377;22;20022;-58
2023/06/21 13:21:16;;;;;;;1.73;0.70;;;;;;;;;;5227299;22;20073;-58
2023/06/21 13:23:36;;;;;;;1.20;0.75;;;;;;;;;;5227324;22;20077;-58
2023/06/21 13:25:58;;;;;;;1.50;0.65;;;;;;;;;;5227402;22;20021;-58
2023/06/21 13:28:18;;;;;;;;;;;;;;;;;;5227767;22;20061;-58
2023/06/21 13:30:39;;;;;;;2.25;0.70;;;;;;;;;;5227235;22;19952;-58
2023/06/21 13:32:59;;;;;;;0.63;0.63;;;;;;;;;;5227288;22;20022;-58
2023/06/21 13:35:19;;;;;;;1.30;0.80;;;;;;;;;;5227153;22;20023;-58
2023/06/21 13:37:39;;;;;;;0.95;0.95;;;;;;;;;;5227113;22;20037;-58
2023/06/21 13:39:59;;;;;;;0.82;0.60;;;;;;;;;;5226691;22;20105;-58
2023/06/21 13:42:19;;;;;;;0.70;0.70;;;;;;;;;;5227289;22;20059;-58
2023/06/21 13:44:39;;;;;;;0.80;0.80;;;;;;;;;;5227124;22;20022;-58
2023/06/21 13:47:00;;;;;;;0.80;0.80;;;;;;;;;;5227148;22;20026;-58
2023/06/21 13:49:20;;;;;;;1.73;0.70;;;;;;;;;;5227300;22;20524;-58
2023/06/21 13:51:41;;;;;;;0.80;0.80;;;;;;;;;;5227231;22;20025;-58
2023/06/21 13:54:02;;;;;;;1.95;0.70;;;;;;;;;;5227092;22;20022;-58
2023/06/21 13:56:21;;;;;;;1.85;0.80;;;;;;;;;;5227162;22;20360;-58
2023/06/21 13:58:44;;;;;;;1.77;0.80;;;;;;;;;;5227069;22;20053;-58
2023/06/21 14:01:07;;;;;;;1.23;1.08;;;;;;;;;;5204039;22;20060;-58
2023/06/21 14:03:27;;;;;;;;;;;;;;;;;;5227548;22;20022;-57
2023/06/21 14:05:47;;;;;;;1.77;0.70;;;;;;;;;;5227203;22;19925;-58
2023/06/21 14:08:07;;;;;;;0.85;0.70;;;;;;;;;;5226985;22;20026;-58
2023/06/21 14:10:28;;;;;;;0.68;0.68;;;;;;;;;;5226990;22;20022;-58
2023/06/21 14:12:49;;;;;;;7.30;0.82;;;;;;;;;;5227093;22;20050;-58
2023/06/21 14:15:10;;;;;;;3.05;0.77;;;;;;;;;;5224087;22;20022;-58
2023/06/21 14:17:32;;;;;;;2.27;0.87;;;;;;;;;;5227098;22;20075;-58
2023/06/21 14:19:52;;;;;;;0.70;0.70;;;;;;;;;;5227172;22;20341;-58
2023/06/21 14:22:13;;;;;;;3.60;0.70;;;;;;;;;;5227000;22;20025;-58
2023/06/21 14:24:33;;;;;;;1.23;0.80;;;;;;;;;;5226860;22;20165;-58
2023/06/21 14:26:53;;;;;;;1.27;0.80;;;;;;;;;;5203487;22;20110;-58
2023/06/21 14:29:14;;;;;;;1.75;0.70;;;;;;;;;;5226954;22;20343;-58
2023/06/21 14:31:35;;;;;;;1.40;0.70;;;;;;;;;;5226860;22;20215;-58
2023/06/21 14:33:55;;;;;;;0.70;0.70;;;;;;;;;;5226811;22;20022;-58
2023/06/21 14:36:15;;;;;;;1.80;0.80;;;;;;;;;;5226937;22;20026;-58
2023/06/21 14:38:36;;;;;;;0.70;0.70;;;;;;;;;;5226796;22;20066;-58
2023/06/21 14:40:57;;;;;;;2.35;0.70;;;;;;;;;;5226785;22;20026;-59
2023/06/21 14:43:17;;;;;;;2.08;0.70;;;;;;;;;;5226914;22;20079;-58
2023/06/21 14:45:37;;;;;;;1.50;0.80;;;;;;;;;;5226778;22;20102;-58
2023/06/21 14:47:58;;;;;;;1.15;1.00;;;;;;;;;;5226747;22;20026;-58
2023/06/21 14:50:19;;;;;;;1.02;0.70;;;;;;;;;;5227373;22;20021;-58
2023/06/21 14:52:39;;;;;;;2.60;0.80;;;;;;;;;;5227824;22;20094;-58
2023/06/21 14:55:00;;;;;;;1.15;0.70;;;;;;;;;;5227619;22;20042;-58
2023/06/21 14:57:20;;;;;;;2.97;0.70;;;;;;;;;;5227968;22;20102;-58
2023/06/21 14:59:40;;;;;;;2.55;0.70;;;;;;;;;;5227933;22;20050;-58
2023/06/21 15:02:03;;;;;;;3.22;0.75;;;;;;;;;;5227746;22;20029;-58
2023/06/21 15:04:22;;;;;;;1.20;0.70;;;;;;;;;;5227732;22;20030;-58
2023/06/21 15:06:43;;;;;;;5.43;0.70;;;;;;;;;;5227847;22;20026;-58
2023/06/21 15:09:04;;;;;;;2.30;0.80;;;;;;;;;;5227614;22;20227;-58
2023/06/21 15:11:24;;;;;;;2.58;0.70;;;;;;;;;;5227886;22;20026;-58
2023/06/21 15:13:45;;;;;;;7.72;0.80;;;;;;;;;;5227900;22;20081;-58
2023/06/21 15:16:06;;;;;;;0.73;0.73;;;;;;;;;;5227852;22;20214;-58
2023/06/21 15:18:26;;;;;;;3.83;0.88;;;;;;;;;;5227717;22;20109;-58
2023/06/21 15:20:47;;;;;;;0.80;0.70;;;;;;;;;;5227784;22;20025;-58
2023/06/21 15:23:08;;;;;;;2.25;0.80;;;;;;;;;;5227692;22;20021;-58
2023/06/21 15:25:28;;;;;;;0.77;0.60;;;;;;;;;;5227571;22;20025;-58
2023/06/21 15:27:48;;;;;;;1.17;0.70;;;;;;;;;;5227733;22;20420;-58
2023/06/21 15:30:09;;;;;;;4.20;0.70;;;;;;;;;;5227756;22;20049;-58
2023/06/21 15:32:29;;;;;;;0.95;0.70;;;;;;;;;;5227586;22;20070;-58
2023/06/21 15:34:49;;;;;;;0.70;0.70;;;;;;;;;;5227515;22;20368;-58
2023/06/21 15:37:09;;;;;;;1.70;0.93;;;;;;;;;;5227695;22;20037;-58
2023/06/21 15:39:30;;;;;;;2.22;0.70;;;;;;;;;;5227604;22;20026;-58
2023/06/21 15:41:51;;;;;;;7.18;1.15;;;;;;;;;;5227660;22;20065;-58
2023/06/21 15:44:11;;;;;;;1.25;0.90;;;;;;;;;;5227738;22;20025;-58
2023/06/21 15:46:32;;;;;;;2.05;0.70;;;;;;;;;;5227623;22;20021;-58
2023/06/21 15:48:53;;;;;;;3.40;0.70;;;;;;;;;;5227618;22;20072;-58
2023/06/21 15:51:13;;;;;;;1.63;0.77;;;;;;;;;;5227718;22;20023;-58
2023/06/21 15:53:34;;;;;;;0.88;0.70;;;;;;;;;;5227606;22;20026;-58
2023/06/21 15:55:57;;;;;;;0.82;0.70;;;;;;;;;;5227497;22;20038;-58
2023/06/21 15:58:17;;;;;;;1.02;0.80;;;;;;;;;;5227614;22;20030;-58
2023/06/21 16:00:38;;;;;;;0.82;0.70;;;;;;;;;;5227698;22;20249;-58
2023/06/21 16:02:58;;;;;;;2.78;0.77;;;;;;;;;;5227233;22;20030;-58
2023/06/21 16:05:19;;;;;;;0.70;0.70;;;;;;;;;;5227650;22;20021;-58
2023/06/21 16:07:39;;;;;;;2.67;0.75;;;;;;;;;;5227694;22;20058;-58
2023/06/21 16:09:59;;;;;;;1.10;0.70;;;;;;;;;;5227518;22;20022;-58
2023/06/21 16:12:19;;;;;;;2.70;0.70;;;;;;;;;;5226352;22;20077;-59
2023/06/21 16:14:39;;;;;;;2.95;0.80;;;;;;;;;;5227533;22;20022;-58
2023/06/21 16:16:59;;;;;;;5.45;0.70;;;;;;;;;;5227546;22;20026;-58
2023/06/21 16:19:20;;;;;;;0.80;0.70;;;;;;;;;;5227545;22;20417;-58
2023/06/21 16:21:40;;;;;;;0.93;0.70;;;;;;;;;;5227679;22;20033;-58
2023/06/21 16:24:00;;;;;;;2.05;0.80;;;;;;;;;;5227552;22;20039;-58
2023/06/21 16:26:22;;;;;;;1.60;0.80;;;;;;;;;;5227344;22;20129;-58
2023/06/21 16:28:42;;;;;;;1.00;0.77;;;;;;;;;;5204524;22;20026;-58
2023/06/21 16:31:03;;;;;;;2.08;0.90;;;;;;;;;;5227503;22;20057;-58
2023/06/21 16:33:23;;;;;;;3.63;1.05;;;;;;;;;;5227352;22;20034;-58
2023/06/21 16:35:43;;;;;;;0.80;0.80;;;;;;;;;;5227297;22;20211;-58
2023/06/21 16:38:03;;;;;;;0.70;0.70;;;;;;;;;;5227523;22;20022;-58
2023/06/21 16:40:24;;;;;;;4.63;0.80;;;;;;;;;;5227339;22;20057;-58
2023/06/21 16:42:44;;;;;;;1.77;0.70;;;;;;;;;;5227414;22;20022;-58
2023/06/21 16:45:04;;;;;;;1.35;0.80;;;;;;;;;;5227466;22;20282;-58
2023/06/21 16:47:24;;;;;;;1.05;0.73;;;;;;;;;;5227408;22;20376;-58
2023/06/21 16:49:45;;;;;;;0.95;0.80;;;;;;;;;;5227340;22;20031;-58
2023/06/21 16:52:05;;;;;;;3.08;0.95;;;;;;;;;;5227449;22;20027;-58